sensor_id;sensor_type;location;lat;lon;timestamp;pressure;altitude;pressure_sealevel;temperature;humidity
20909;BME280;10614;53.198;6.570;2022-08-03T00:00:25;101449.56;;;21.29;100.00
20909;BME280;10614;53.198;6.570;2022-08-03T00:02:27;101459.53;;;21.27;100.00
20909;BME280;10614;53.198;6.570;2022-08-03T00:04:28;101451.72;;;21.24;100.00
20909;BME280;10614;53.198;6.570;2022-08-03T00:06:30;101447.34;;;21.23;100.00
20909;BME280;10614;53.198;6.570;2022-08-03T00:08:31;101451.94;;;21.21;100.00
20909;BME280;10614;53.198;6.570;2022-08-03T00:10:34;101452.19;;;21.18;100.00
20909;BME280;10614;53.198;6.570;2022-08-03T00:12:37;101453.16;;;21.17;100.00
20909;BME280;10614;53.198;6.570;2022-08-03T00:14:38;101451.44;;;21.16;100.00
20909;BME280;10614;53.198;6.570;2022-08-03T00:16:40;101447.06;;;21.15;100.00
20909;BME280;10614;53.198;6.570;2022-08-03T00:18:41;101448.03;;;21.14;100.00
20909;BME280;10614;53.198;6.570;2022-08-03T00:20:43;101451.78;;;21.11;100.00
20909;BME280;10614;53.198;6.570;2022-08-03T00:22:45;101448.38;;;21.09;100.00
20909;BME280;10614;53.198;6.570;2022-08-03T00:24:46;101446.78;;;21.06;100.00
20909;BME280;10614;53.198;6.570;2022-08-03T00:26:49;101452.13;;;21.06;100.00
20909;BME280;10614;53.198;6.570;2022-08-03T00:28:50;101451.53;;;21.03;100.00
20909;BME280;10614;53.198;6.570;2022-08-03T00:30:52;101446.28;;;21.01;100.00
20909;BME280;10614;53.198;6.570;2022-08-03T00:32:54;101450.88;;;20.99;100.00
20909;BME280;10614;53.198;6.570;2022-08-03T00:34:56;101451.97;;;20.97;100.00
20909;BME280;10614;53.198;6.570;2022-08-03T00:36:58;101444.91;;;20.96;100.00
20909;BME280;10614;53.198;6.570;2022-08-03T00:38:59;101440.41;;;20.96;100.00
20909;BME280;10614;53.198;6.570;2022-08-03T00:41:00;101448.53;;;20.95;100.00
20909;BME280;10614;53.198;6.570;2022-08-03T00:43:04;101438.81;;;20.94;100.00
20909;BME280;10614;53.198;6.570;2022-08-03T00:45:06;101438.06;;;20.92;100.00
20909;BME280;10614;53.198;6.570;2022-08-03T00:47:08;101444.50;;;20.89;100.00
20909;BME280;10614;53.198;6.570;2022-08-03T00:49:10;101446.53;;;20.85;100.00
20909;BME280;10614;53.198;6.570;2022-08-03T00:51:11;101436.81;;;20.84;100.00
20909;BME280;10614;53.198;6.570;2022-08-03T00:53:13;101436.94;;;20.83;100.00
20909;BME280;10614;53.198;6.570;2022-08-03T00:55:14;101433.41;;;20.82;100.00
20909;BME280;10614;53.198;6.570;2022-08-03T00:57:16;101438.84;;;20.81;100.00
20909;BME280;10614;53.198;6.570;2022-08-03T00:59:19;101425.72;;;20.78;100.00
20909;BME280;10614;53.198;6.570;2022-08-03T01:01:21;101442.75;;;20.77;100.00
20909;BME280;10614;53.198;6.570;2022-08-03T01:03:22;101442.00;;;20.75;100.00
20909;BME280;10614;53.198;6.570;2022-08-03T01:05:24;101434.06;;;20.73;100.00
20909;BME280;10614;53.198;6.570;2022-08-03T01:07:28;101438.69;;;20.71;100.00
20909;BME280;10614;53.198;6.570;2022-08-03T01:09:35;101431.75;;;20.69;100.00
20909;BME280;10614;53.198;6.570;2022-08-03T01:11:39;101436.34;;;20.66;100.00
20909;BME280;10614;53.198;6.570;2022-08-03T01:13:47;101431.22;;;20.63;100.00
20909;BME280;10614;53.198;6.570;2022-08-03T01:15:53;101433.16;;;20.61;100.00
20909;BME280;10614;53.198;6.570;2022-08-03T01:17:58;101438.75;;;20.58;100.00
20909;BME280;10614;53.198;6.570;2022-08-03T01:20:02;101427.16;;;20.58;100.00
20909;BME280;10614;53.198;6.570;2022-08-03T01:22:08;101428.22;;;20.55;100.00
20909;BME280;10614;53.198;6.570;2022-08-03T01:24:15;101428.22;;;20.55;100.00
20909;BME280;10614;53.198;6.570;2022-08-03T01:26:31;101419.44;;;20.53;100.00
20909;BME280;10614;53.198;6.570;2022-08-03T01:28:41;101418.72;;;20.51;100.00
20909;BME280;10614;53.198;6.570;2022-08-03T01:30:49;101419.06;;;20.47;100.00
20909;BME280;10614;53.198;6.570;2022-08-03T01:32:54;101412.00;;;20.45;100.00
20909;BME280;10614;53.198;6.570;2022-08-03T01:34:58;101420.13;;;20.44;100.00
20909;BME280;10614;53.198;6.570;2022-08-03T01:37:02;101417.66;;;20.41;100.00
20909;BME280;10614;53.198;6.570;2022-08-03T01:39:05;101402.69;;;20.38;100.00
20909;BME280;10614;53.198;6.570;2022-08-03T01:41:10;101410.72;;;20.38;100.00
20909;BME280;10614;53.198;6.570;2022-08-03T01:43:14;101409.88;;;20.38;100.00
20909;BME280;10614;53.198;6.570;2022-08-03T01:45:16;101409.13;;;20.36;100.00
20909;BME280;10614;53.198;6.570;2022-08-03T01:47:20;101411.06;;;20.34;100.00
20909;BME280;10614;53.198;6.570;2022-08-03T01:49:22;101405.84;;;20.32;100.00
20909;BME280;10614;53.198;6.570;2022-08-03T01:51:24;101404.22;;;20.30;100.00
20909;BME280;10614;53.198;6.570;2022-08-03T01:53:26;101398.03;;;20.29;100.00
20909;BME280;10614;53.198;6.570;2022-08-03T01:55:28;101400.94;;;20.26;100.00
20909;BME280;10614;53.198;6.570;2022-08-03T01:57:32;101402.94;;;20.22;100.00
20909;BME280;10614;53.198;6.570;2022-08-03T01:59:34;101403.94;;;20.21;100.00
20909;BME280;10614;53.198;6.570;2022-08-03T02:01:36;101401.47;;;20.18;100.00
20909;BME280;10614;53.198;6.570;2022-08-03T02:03:40;101394.53;;;20.16;100.00
20909;BME280;10614;53.198;6.570;2022-08-03T02:05:43;101398.50;;;20.10;100.00
20909;BME280;10614;53.198;6.570;2022-08-03T02:07:46;101395.06;;;20.08;100.00
20909;BME280;10614;53.198;6.570;2022-08-03T02:09:49;101399.78;;;20.05;100.00
20909;BME280;10614;53.198;6.570;2022-08-03T02:11:51;101398.91;;;20.04;100.00
20909;BME280;10614;53.198;6.570;2022-08-03T02:13:53;101395.41;;;20.03;100.00
20909;BME280;10614;53.198;6.570;2022-08-03T02:15:55;101391.03;;;20.02;100.00
20909;BME280;10614;53.198;6.570;2022-08-03T02:17:57;101388.34;;;20.02;100.00
20909;BME280;10614;53.198;6.570;2022-08-03T02:20:02;101384.84;;;20.02;100.00
20909;BME280;10614;53.198;6.570;2022-08-03T02:22:04;101386.53;;;20.03;100.00
20909;BME280;10614;53.198;6.570;2022-08-03T02:24:08;101392.84;;;20.02;100.00
20909;BME280;10614;53.198;6.570;2022-08-03T02:26:13;101391.03;;;20.02;100.00
20909;BME280;10614;53.198;6.570;2022-08-03T02:28:16;101383.97;;;20.01;100.00
20909;BME280;10614;53.198;6.570;2022-08-03T02:30:18;101387.50;;;20.02;100.00
20909;BME280;10614;53.198;6.570;2022-08-03T02:32:23;101384.94;;;20.00;100.00
20909;BME280;10614;53.198;6.570;2022-08-03T02:34:26;101386.84;;;19.98;100.00
20909;BME280;10614;53.198;6.570;2022-08-03T02:36:32;101383.34;;;19.98;100.00
20909;BME280;10614;53.198;6.570;2022-08-03T02:38:35;101390.38;;;19.99;100.00
20909;BME280;10614;53.198;6.570;2022-08-03T02:40:39;101378.94;;;19.97;100.00
20909;BME280;10614;53.198;6.570;2022-08-03T02:42:41;101386.94;;;19.97;100.00
20909;BME280;10614;53.198;6.570;2022-08-03T02:44:44;101382.59;;;19.96;100.00
20909;BME280;10614;53.198;6.570;2022-08-03T02:46:48;101378.31;;;19.93;100.00
20909;BME280;10614;53.198;6.570;2022-08-03T02:48:53;101374.91;;;19.91;100.00
20909;BME280;10614;53.198;6.570;2022-08-03T02:50:56;101381.22;;;19.90;100.00
20909;BME280;10614;53.198;6.570;2022-08-03T02:53:00;101373.31;;;19.89;100.00
20909;BME280;10614;53.198;6.570;2022-08-03T02:55:02;101378.66;;;19.89;100.00
20909;BME280;10614;53.198;6.570;2022-08-03T02:57:05;101378.75;;;19.87;100.00
20909;BME280;10614;53.198;6.570;2022-08-03T02:59:07;101377.91;;;19.87;100.00
20909;BME280;10614;53.198;6.570;2022-08-03T03:01:10;101372.88;;;19.82;100.00
20909;BME280;10614;53.198;6.570;2022-08-03T03:03:12;101372.13;;;19.80;100.00
20909;BME280;10614;53.198;6.570;2022-08-03T03:05:14;101366.91;;;19.78;100.00
20909;BME280;10614;53.198;6.570;2022-08-03T03:07:15;101362.59;;;19.76;100.00
20909;BME280;10614;53.198;6.570;2022-08-03T03:09:19;101364.44;;;19.75;100.00
20909;BME280;10614;53.198;6.570;2022-08-03T03:11:21;101360.06;;;19.74;100.00
20909;BME280;10614;53.198;6.570;2022-08-03T03:13:22;101366.34;;;19.73;100.00
20909;BME280;10614;53.198;6.570;2022-08-03T03:15:24;101362.00;;;19.72;100.00
20909;BME280;10614;53.198;6.570;2022-08-03T03:17:26;101362.22;;;19.69;100.00
20909;BME280;10614;53.198;6.570;2022-08-03T03:19:28;101366.69;;;19.69;100.00
20909;BME280;10614;53.198;6.570;2022-08-03T03:21:31;101365.81;;;19.68;100.00
20909;BME280;10614;53.198;6.570;2022-08-03T03:23:33;101366.78;;;19.67;100.00
20909;BME280;10614;53.198;6.570;2022-08-03T03:25:37;101364.09;;;19.67;100.00
20909;BME280;10614;53.198;6.570;2022-08-03T03:27:38;101358.75;;;19.67;100.00
20909;BME280;10614;53.198;6.570;2022-08-03T03:29:40;101359.69;;;19.66;100.00
20909;BME280;10614;53.198;6.570;2022-08-03T03:31:42;101368.59;;;19.67;100.00
20909;BME280;10614;53.198;6.570;2022-08-03T03:33:43;101375.72;;;19.66;100.00
20909;BME280;10614;53.198;6.570;2022-08-03T03:35:45;101367.19;;;19.61;100.00
20909;BME280;10614;53.198;6.570;2022-08-03T03:37:47;101369.84;;;19.61;100.00
20909;BME280;10614;53.198;6.570;2022-08-03T03:39:49;101370.84;;;19.60;100.00
20909;BME280;10614;53.198;6.570;2022-08-03T03:41:52;101369.09;;;19.59;100.00
20909;BME280;10614;53.198;6.570;2022-08-03T03:43:53;101376.38;;;19.57;100.00
20909;BME280;10614;53.198;6.570;2022-08-03T03:45:55;101364.94;;;19.55;100.00
20909;BME280;10614;53.198;6.570;2022-08-03T03:47:58;101371.25;;;19.54;100.00
20909;BME280;10614;53.198;6.570;2022-08-03T03:50:00;101367.72;;;19.53;100.00
20909;BME280;10614;53.198;6.570;2022-08-03T03:52:01;101363.25;;;19.54;100.00
20909;BME280;10614;53.198;6.570;2022-08-03T03:54:03;101367.81;;;19.52;100.00
20909;BME280;10614;53.198;6.570;2022-08-03T03:56:06;101366.22;;;19.49;100.00
20909;BME280;10614;53.198;6.570;2022-08-03T03:58:09;101369.75;;;19.50;100.00
20909;BME280;10614;53.198;6.570;2022-08-03T04:00:11;101369.00;;;19.48;100.00
20909;BME280;10614;53.198;6.570;2022-08-03T04:02:12;101368.16;;;19.47;100.00
20909;BME280;10614;53.198;6.570;2022-08-03T04:04:14;101372.63;;;19.47;100.00
20909;BME280;10614;53.198;6.570;2022-08-03T04:06:32;101368.28;;;19.46;100.00
20909;BME280;10614;53.198;6.570;2022-08-03T04:08:51;101371.13;;;19.43;100.00
20909;BME280;10614;53.198;6.570;2022-08-03T04:11:11;101369.44;;;19.42;100.00
20909;BME280;10614;53.198;6.570;2022-08-03T04:13:14;101371.34;;;19.39;100.00
20909;BME280;10614;53.198;6.570;2022-08-03T04:15:17;101368.78;;;19.38;100.00
20909;BME280;10614;53.198;6.570;2022-08-03T04:17:20;101360.00;;;19.36;100.00
20909;BME280;10614;53.198;6.570;2022-08-03T04:19:25;101367.19;;;19.35;100.00
20909;BME280;10614;53.198;6.570;2022-08-03T04:21:28;101369.84;;;19.35;100.00
20909;BME280;10614;53.198;6.570;2022-08-03T04:23:32;101367.41;;;19.32;100.00
20909;BME280;10614;53.198;6.570;2022-08-03T04:25:34;101371.00;;;19.31;100.00
20909;BME280;10614;53.198;6.570;2022-08-03T04:27:39;101380.75;;;19.32;100.00
20909;BME280;10614;53.198;6.570;2022-08-03T04:29:44;101382.66;;;19.30;100.00
20909;BME280;10614;53.198;6.570;2022-08-03T04:31:46;101387.16;;;19.30;100.00
20909;BME280;10614;53.198;6.570;2022-08-03T04:33:49;101382.75;;;19.29;100.00
20909;BME280;10614;53.198;6.570;2022-08-03T04:35:51;101382.75;;;19.29;100.00
20909;BME280;10614;53.198;6.570;2022-08-03T04:37:56;101381.06;;;19.28;100.00
20909;BME280;10614;53.198;6.570;2022-08-03T04:40:01;101385.53;;;19.27;100.00
20909;BME280;10614;53.198;6.570;2022-08-03T04:42:05;101389.06;;;19.28;100.00
20909;BME280;10614;53.198;6.570;2022-08-03T04:44:07;101391.81;;;19.26;100.00
20909;BME280;10614;53.198;6.570;2022-08-03T04:46:10;101391.81;;;19.26;100.00
20909;BME280;10614;53.198;6.570;2022-08-03T04:48:12;101398.88;;;19.27;100.00
20909;BME280;10614;53.198;6.570;2022-08-03T04:50:14;101395.34;;;19.27;100.00
20909;BME280;10614;53.198;6.570;2022-08-03T04:52:16;101391.94;;;19.25;100.00
20909;BME280;10614;53.198;6.570;2022-08-03T04:54:17;101402.63;;;19.25;100.00
20909;BME280;10614;53.198;6.570;2022-08-03T04:56:19;101401.00;;;19.22;100.00
20909;BME280;10614;53.198;6.570;2022-08-03T04:58:20;101399.28;;;19.21;100.00
20909;BME280;10614;53.198;6.570;2022-08-03T05:00:22;101404.53;;;19.23;100.00
20909;BME280;10614;53.198;6.570;2022-08-03T05:02:25;101404.63;;;19.21;100.00
20909;BME280;10614;53.198;6.570;2022-08-03T05:04:26;101409.88;;;19.23;100.00
20909;BME280;10614;53.198;6.570;2022-08-03T05:06:28;101402.94;;;19.20;100.00
20909;BME280;10614;53.198;6.570;2022-08-03T05:08:29;101401.44;;;19.16;100.00
20909;BME280;10614;53.198;6.570;2022-08-03T05:10:31;101406.84;;;19.14;100.00
20909;BME280;10614;53.198;6.570;2022-08-03T05:12:32;101411.34;;;19.14;100.00
20909;BME280;10614;53.198;6.570;2022-08-03T05:14:34;101412.09;;;19.16;100.00
20909;BME280;10614;53.198;6.570;2022-08-03T05:16:37;101412.09;;;19.16;100.00
20909;BME280;10614;53.198;6.570;2022-08-03T05:18:40;101416.47;;;19.17;100.00
20909;BME280;10614;53.198;6.570;2022-08-03T05:20:42;101414.69;;;19.17;100.00
20909;BME280;10614;53.198;6.570;2022-08-03T05:22:43;101412.84;;;19.18;100.00
20909;BME280;10614;53.198;6.570;2022-08-03T05:24:45;101424.38;;;19.18;100.00
20909;BME280;10614;53.198;6.570;2022-08-03T05:26:46;101411.03;;;19.18;100.00
20909;BME280;10614;53.198;6.570;2022-08-03T05:28:48;101410.19;;;19.18;100.00
20909;BME280;10614;53.198;6.570;2022-08-03T05:30:49;101403.88;;;19.19;100.00
20909;BME280;10614;53.198;6.570;2022-08-03T05:32:51;101402.06;;;19.19;100.00
20909;BME280;10614;53.198;6.570;2022-08-03T05:34:54;101409.13;;;19.21;100.00
20909;BME280;10614;53.198;6.570;2022-08-03T05:36:56;101408.16;;;19.22;100.00
20909;BME280;10614;53.198;6.570;2022-08-03T05:38:57;101404.53;;;19.23;100.00
20909;BME280;10614;53.198;6.570;2022-08-03T05:40:59;101400.13;;;19.22;100.00
20909;BME280;10614;53.198;6.570;2022-08-03T05:43:00;101401.88;;;19.23;100.00
20909;BME280;10614;53.198;6.570;2022-08-03T05:45:02;101408.06;;;19.23;100.00
20909;BME280;10614;53.198;6.570;2022-08-03T05:47:12;101402.72;;;19.23;100.00
20909;BME280;10614;53.198;6.570;2022-08-03T05:49:13;101401.75;;;19.24;100.00
20909;BME280;10614;53.198;6.570;2022-08-03T05:51:16;101394.63;;;19.25;100.00
20909;BME280;10614;53.198;6.570;2022-08-03T05:53:17;101398.88;;;19.27;100.00
20909;BME280;10614;53.198;6.570;2022-08-03T05:55:19;101400.59;;;19.28;100.00
20909;BME280;10614;53.198;6.570;2022-08-03T05:57:20;101407.75;;;19.28;100.00
20909;BME280;10614;53.198;6.570;2022-08-03T05:59:22;101396.09;;;19.29;100.00
20909;BME280;10614;53.198;6.570;2022-08-03T06:01:24;101404.00;;;19.30;100.00
20909;BME280;10614;53.198;6.570;2022-08-03T06:03:26;101406.47;;;19.33;100.00
20909;BME280;10614;53.198;6.570;2022-08-03T06:05:27;101404.53;;;19.35;100.00
20909;BME280;10614;53.198;6.570;2022-08-03T06:07:30;101410.72;;;19.36;100.00
20909;BME280;10614;53.198;6.570;2022-08-03T06:09:32;101404.31;;;19.38;100.00
20909;BME280;10614;53.198;6.570;2022-08-03T06:11:34;101407.00;;;19.38;100.00
20909;BME280;10614;53.198;6.570;2022-08-03T06:13:35;101411.31;;;19.41;100.00
20909;BME280;10614;53.198;6.570;2022-08-03T06:15:36;101413.00;;;19.42;100.00
20909;BME280;10614;53.198;6.570;2022-08-03T06:17:45;101412.16;;;19.42;100.00
20909;BME280;10614;53.198;6.570;2022-08-03T06:19:47;101419.84;;;19.46;100.00
20909;BME280;10614;53.198;6.570;2022-08-03T06:21:49;101420.69;;;19.47;100.00
20909;BME280;10614;53.198;6.570;2022-08-03T06:23:52;101415.34;;;19.47;100.00
20909;BME280;10614;53.198;6.570;2022-08-03T06:25:53;101420.59;;;19.48;100.00
20909;BME280;10614;53.198;6.570;2022-08-03T06:27:55;101410.78;;;19.49;100.00
20909;BME280;10614;53.198;6.570;2022-08-03T06:29:58;101415.47;;;19.58;100.00
20909;BME280;10614;53.198;6.570;2022-08-03T06:32:00;101416.41;;;19.57;100.00
20909;BME280;10614;53.198;6.570;2022-08-03T06:34:01;101410.31;;;19.55;100.00
20909;BME280;10614;53.198;6.570;2022-08-03T06:36:04;101412.91;;;19.56;100.00
20909;BME280;10614;53.198;6.570;2022-08-03T06:38:05;101409.16;;;19.59;100.00
20909;BME280;10614;53.198;6.570;2022-08-03T06:40:10;101409.06;;;19.60;100.00
20909;BME280;10614;53.198;6.570;2022-08-03T06:42:11;101406.19;;;19.64;100.00
20909;BME280;10614;53.198;6.570;2022-08-03T06:44:13;101407.03;;;19.64;100.00
20909;BME280;10614;53.198;6.570;2022-08-03T06:46:15;101409.59;;;19.66;100.00
20909;BME280;10614;53.198;6.570;2022-08-03T06:48:16;101398.72;;;19.69;100.00
20909;BME280;10614;53.198;6.570;2022-08-03T06:50:18;101406.53;;;19.72;100.00
20909;BME280;10614;53.198;6.570;2022-08-03T06:52:19;101403.00;;;19.71;100.00
20909;BME280;10614;53.198;6.570;2022-08-03T06:54:21;101412.66;;;19.74;100.00
20909;BME280;10614;53.198;6.570;2022-08-03T06:56:25;101413.50;;;19.74;100.00
20909;BME280;10614;53.198;6.570;2022-08-03T06:58:26;101418.59;;;19.77;100.00
20909;BME280;10614;53.198;6.570;2022-08-03T07:00:28;101416.69;;;19.79;100.00
20909;BME280;10614;53.198;6.570;2022-08-03T07:02:30;101412.09;;;19.81;100.00
20909;BME280;10614;53.198;6.570;2022-08-03T07:04:31;101417.22;;;19.85;100.00
20909;BME280;10614;53.198;6.570;2022-08-03T07:06:33;101422.47;;;19.86;100.00
20909;BME280;10614;53.198;6.570;2022-08-03T07:08:35;101417.88;;;19.88;100.00
20909;BME280;10614;53.198;6.570;2022-08-03T07:10:36;101416.03;;;19.89;100.00
20909;BME280;10614;53.198;6.570;2022-08-03T07:12:39;101425.56;;;19.93;100.00
20909;BME280;10614;53.198;6.570;2022-08-03T07:14:41;101432.38;;;19.97;100.00
20909;BME280;10614;53.198;6.570;2022-08-03T07:16:42;101417.09;;;19.99;100.00
20909;BME280;10614;53.198;6.570;2022-08-03T07:18:44;101423.94;;;20.03;100.00
20909;BME280;10614;53.198;6.570;2022-08-03T07:20:45;101426.28;;;20.08;100.00
20909;BME280;10614;53.198;6.570;2022-08-03T07:22:47;101427.03;;;20.10;100.00
20909;BME280;10614;53.198;6.570;2022-08-03T07:24:48;101426.94;;;20.11;100.00
20909;BME280;10614;53.198;6.570;2022-08-03T07:26:50;101427.66;;;20.13;100.00
20909;BME280;10614;53.198;6.570;2022-08-03T07:28:53;101433.75;;;20.15;100.00
20909;BME280;10614;53.198;6.570;2022-08-03T07:30:54;101430.97;;;20.17;100.00
20909;BME280;10614;53.198;6.570;2022-08-03T07:32:56;101427.25;;;20.19;100.00
20909;BME280;10614;53.198;6.570;2022-08-03T07:34:58;101436.00;;;20.21;100.00
20909;BME280;10614;53.198;6.570;2022-08-03T07:36:59;101434.19;;;20.22;100.00
20909;BME280;10614;53.198;6.570;2022-08-03T07:39:01;101432.25;;;20.24;100.00
20909;BME280;10614;53.198;6.570;2022-08-03T07:41:02;101431.28;;;20.25;100.00
20909;BME280;10614;53.198;6.570;2022-08-03T07:43:04;101430.22;;;20.28;100.00
20909;BME280;10614;53.198;6.570;2022-08-03T07:45:08;101430.84;;;20.31;100.00
20909;BME280;10614;53.198;6.570;2022-08-03T07:47:10;101427.09;;;20.34;100.00
20909;BME280;10614;53.198;6.570;2022-08-03T07:49:11;101426.16;;;20.35;100.00
20909;BME280;10614;53.198;6.570;2022-08-03T07:51:13;101426.03;;;20.36;100.00
20909;BME280;10614;53.198;6.570;2022-08-03T07:53:14;101423.25;;;20.38;100.00
20909;BME280;10614;53.198;6.570;2022-08-03T07:55:17;101423.88;;;20.41;100.00
20909;BME280;10614;53.198;6.570;2022-08-03T07:57:19;101438.84;;;20.44;100.00
20909;BME280;10614;53.198;6.570;2022-08-03T07:59:21;101433.28;;;20.47;100.00
20909;BME280;10614;53.198;6.570;2022-08-03T08:01:23;101426.75;;;20.51;100.00
20909;BME280;10614;53.198;6.570;2022-08-03T08:03:25;101429.13;;;20.56;100.00
20909;BME280;10614;53.198;6.570;2022-08-03T08:05:27;101432.50;;;20.58;100.00
20909;BME280;10614;53.198;6.570;2022-08-03T08:07:28;101437.53;;;20.62;100.00
20909;BME280;10614;53.198;6.570;2022-08-03T08:09:30;101436.59;;;20.63;100.00
20909;BME280;10614;53.198;6.570;2022-08-03T08:11:31;101444.50;;;20.65;100.00
20909;BME280;10614;53.198;6.570;2022-08-03T08:13:33;101447.78;;;20.69;100.00
20909;BME280;10614;53.198;6.570;2022-08-03T08:15:36;101443.19;;;20.71;100.00
20909;BME280;10614;53.198;6.570;2022-08-03T08:17:43;101446.59;;;20.73;100.00
20909;BME280;10614;53.198;6.570;2022-08-03T08:19:45;101448.19;;;20.75;100.00
20909;BME280;10614;53.198;6.570;2022-08-03T08:21:46;101445.44;;;20.77;100.00
20909;BME280;10614;53.198;6.570;2022-08-03T08:23:48;101439.09;;;20.78;100.00
20909;BME280;10614;53.198;6.570;2022-08-03T08:25:49;101434.50;;;20.80;100.00
20909;BME280;10614;53.198;6.570;2022-08-03T08:27:51;101444.00;;;20.84;100.00
20909;BME280;10614;53.198;6.570;2022-08-03T08:29:53;101449.22;;;20.85;100.00
20909;BME280;10614;53.198;6.570;2022-08-03T08:31:55;101445.59;;;20.86;100.00
20909;BME280;10614;53.198;6.570;2022-08-03T08:33:58;101450.59;;;20.91;100.00
20909;BME280;10614;53.198;6.570;2022-08-03T08:36:04;101448.69;;;20.93;100.00
20909;BME280;10614;53.198;6.570;2022-08-03T08:38:06;101451.97;;;20.97;100.00
20909;BME280;10614;53.198;6.570;2022-08-03T08:40:08;101450.88;;;20.99;100.00
20909;BME280;10614;53.198;6.570;2022-08-03T08:42:09;101459.56;;;21.03;100.00
20909;BME280;10614;53.198;6.570;2022-08-03T08:44:11;101453.13;;;21.05;100.00
20909;BME280;10614;53.198;6.570;2022-08-03T08:46:13;101454.47;;;21.11;100.00
20909;BME280;10614;53.198;6.570;2022-08-03T08:48:14;101452.44;;;21.15;100.00
20909;BME280;10614;53.198;6.570;2022-08-03T08:50:20;101453.03;;;21.18;100.00
20909;BME280;10614;53.198;6.570;2022-08-03T08:52:23;101458.03;;;21.23;100.00
20909;BME280;10614;53.198;6.570;2022-08-03T08:54:25;101450.50;;;21.28;100.00
20909;BME280;10614;53.198;6.570;2022-08-03T08:56:27;101458.34;;;21.31;100.00
20909;BME280;10614;53.198;6.570;2022-08-03T08:58:29;101459.69;;;21.37;100.00
20909;BME280;10614;53.198;6.570;2022-08-03T09:00:34;101464.63;;;21.43;100.00
20909;BME280;10614;53.198;6.570;2022-08-03T09:02:35;101461.59;;;21.47;100.00
20909;BME280;10614;53.198;6.570;2022-08-03T09:04:37;101467.69;;;21.49;100.00
20909;BME280;10614;53.198;6.570;2022-08-03T09:06:40;101462.09;;;21.53;100.00
20909;BME280;10614;53.198;6.570;2022-08-03T09:08:42;101463.56;;;21.57;100.00
20909;BME280;10614;53.198;6.570;2022-08-03T09:10:43;101468.44;;;21.63;100.00
20909;BME280;10614;53.198;6.570;2022-08-03T09:12:46;101465.53;;;21.66;100.00
20909;BME280;10614;53.198;6.570;2022-08-03T09:14:47;101465.19;;;21.70;100.00
20909;BME280;10614;53.198;6.570;2022-08-03T09:16:55;101467.72;;;21.72;100.00
20909;BME280;10614;53.198;6.570;2022-08-03T09:19:10;101469.44;;;21.73;100.00
20909;BME280;10614;53.198;6.570;2022-08-03T09:21:13;101464.09;;;21.73;100.00
20909;BME280;10614;53.198;6.570;2022-08-03T09:23:16;101460.44;;;21.74;100.00
20909;BME280;10614;53.198;6.570;2022-08-03T09:25:17;101466.53;;;21.76;100.00
20909;BME280;10614;53.198;6.570;2022-08-03T09:27:19;101461.28;;;21.75;100.00
20909;BME280;10614;53.198;6.570;2022-08-03T09:29:20;101471.03;;;21.76;100.00
20909;BME280;10614;53.198;6.570;2022-08-03T09:31:29;101468.22;;;21.77;100.00
20909;BME280;10614;53.198;6.570;2022-08-03T09:33:31;101467.00;;;21.81;100.00
20909;BME280;10614;53.198;6.570;2022-08-03T09:35:33;101475.91;;;21.82;100.00
20909;BME280;10614;53.198;6.570;2022-08-03T09:37:40;101474.81;;;21.84;100.00
20909;BME280;10614;53.198;6.570;2022-08-03T09:39:43;101464.09;;;21.96;100.00
20909;BME280;10614;53.198;6.570;2022-08-03T09:41:46;101463.00;;;21.98;100.00
20909;BME280;10614;53.198;6.570;2022-08-03T09:43:48;101455.69;;;22.00;100.00
20909;BME280;10614;53.198;6.570;2022-08-03T09:46:04;101462.66;;;22.03;100.00
20909;BME280;10614;53.198;6.570;2022-08-03T09:48:20;101464.38;;;22.04;100.00
20909;BME280;10614;53.198;6.570;2022-08-03T09:50:21;101463.28;;;22.06;100.00
20909;BME280;10614;53.198;6.570;2022-08-03T09:52:28;101459.59;;;22.07;100.00
20909;BME280;10614;53.198;6.570;2022-08-03T09:54:30;101459.13;;;22.13;100.00
20909;BME280;10614;53.198;6.570;2022-08-03T09:58:53;101450.00;;;22.16;100.00
20909;BME280;10614;53.198;6.570;2022-08-03T10:00:56;101457.69;;;22.21;100.00
20909;BME280;10614;53.198;6.570;2022-08-03T10:03:02;101450.41;;;22.23;100.00
20909;BME280;10614;53.198;6.570;2022-08-03T10:05:04;101457.22;;;22.27;100.00
20909;BME280;10614;53.198;6.570;2022-08-03T10:07:10;101459.66;;;22.30;100.00
20909;BME280;10614;53.198;6.570;2022-08-03T10:09:12;101460.38;;;22.32;100.00
20909;BME280;10614;53.198;6.570;2022-08-03T10:11:15;101452.09;;;22.35;100.00
20909;BME280;10614;53.198;6.570;2022-08-03T10:13:29;101457.19;;;22.38;100.00
20909;BME280;10614;53.198;6.570;2022-08-03T10:15:32;101457.09;;;22.40;100.00
20909;BME280;10614;53.198;6.570;2022-08-03T10:17:33;101462.19;;;22.43;100.00
20909;BME280;10614;53.198;6.570;2022-08-03T10:19:35;101457.81;;;22.42;100.00
20909;BME280;10614;53.198;6.570;2022-08-03T10:21:37;101456.59;;;22.46;100.00
20909;BME280;10614;53.198;6.570;2022-08-03T10:23:38;101452.81;;;22.48;100.00
20909;BME280;10614;53.198;6.570;2022-08-03T10:25:41;101455.13;;;22.53;100.00
20909;BME280;10614;53.198;6.570;2022-08-03T10:27:45;101454.03;;;22.55;100.00
20909;BME280;10614;53.198;6.570;2022-08-03T10:29:49;101464.50;;;22.59;100.00
20909;BME280;10614;53.198;6.570;2022-08-03T10:31:53;101457.28;;;22.59;100.00
20909;BME280;10614;53.198;6.570;2022-08-03T10:33:56;101449.13;;;22.72;100.00
20909;BME280;10614;53.198;6.570;2022-08-03T10:35:59;101452.38;;;22.75;100.00